Terminal Aerodrome Forecast
Issued by NWS Boston, MA

Home | Current Version | Previous Version | Text Only | Print | Product List | Glossary On
Versions: 1 2 3 4 5 6 7 8 9 10 11 12 13 14 15 16 17 18 19 20 21
000
FTUS41 KBOX 020041 AAA
TAFPVD
TAF AMD
KPVD 020041Z 0201/0224 12005KT 4SM -SHRA OVC045
     FM020300 08004KT 4SM -SHRA BR OVC020
     FM020500 06005KT 5SM -DZ BR VCSH OVC012
     FM020700 05005KT 3SM -DZ BR OVC008
     FM021500 02005KT P6SM OVC010
     FM022300 28004KT P6SM OVC010=

USA.gov is the U.S. government's official web portal to all federal, state and local government web resources and services.